sensor_id;sensor_type;location;lat;lon;timestamp;temperature;humidity
20722;DHT22;10522;52.198;9.890;2023-07-24T00:01:17;19.40;99.90
20722;DHT22;10522;52.198;9.890;2023-07-24T00:03:44;19.40;99.90
20722;DHT22;10522;52.198;9.890;2023-07-24T00:06:10;19.40;99.90
20722;DHT22;10522;52.198;9.890;2023-07-24T00:08:35;19.40;99.90
20722;DHT22;10522;52.198;9.890;2023-07-24T00:11:01;19.40;99.90
20722;DHT22;10522;52.198;9.890;2023-07-24T00:13:29;19.40;99.90
20722;DHT22;10522;52.198;9.890;2023-07-24T00:15:56;19.30;99.90
20722;DHT22;10522;52.198;9.890;2023-07-24T00:18:22;19.30;99.90
20722;DHT22;10522;52.198;9.890;2023-07-24T00:20:47;19.20;99.90
20722;DHT22;10522;52.198;9.890;2023-07-24T00:23:13;19.20;99.90
20722;DHT22;10522;52.198;9.890;2023-07-24T00:25:38;19.20;99.90
20722;DHT22;10522;52.198;9.890;2023-07-24T00:28:04;19.20;99.90
20722;DHT22;10522;52.198;9.890;2023-07-24T00:30:29;19.20;99.90
20722;DHT22;10522;52.198;9.890;2023-07-24T00:32:55;19.20;99.90
20722;DHT22;10522;52.198;9.890;2023-07-24T00:35:21;19.20;99.90
20722;DHT22;10522;52.198;9.890;2023-07-24T00:37:47;19.30;99.90
20722;DHT22;10522;52.198;9.890;2023-07-24T00:40:12;19.30;99.90
20722;DHT22;10522;52.198;9.890;2023-07-24T00:42:38;19.30;99.90
20722;DHT22;10522;52.198;9.890;2023-07-24T00:45:04;19.20;99.90
20722;DHT22;10522;52.198;9.890;2023-07-24T00:47:29;19.20;99.90
20722;DHT22;10522;52.198;9.890;2023-07-24T00:49:55;19.10;99.90
20722;DHT22;10522;52.198;9.890;2023-07-24T00:52:21;19.10;99.90
20722;DHT22;10522;52.198;9.890;2023-07-24T00:54:47;19.10;99.90
20722;DHT22;10522;52.198;9.890;2023-07-24T00:57:14;19.10;99.90
20722;DHT22;10522;52.198;9.890;2023-07-24T00:59:40;19.10;99.90
20722;DHT22;10522;52.198;9.890;2023-07-24T01:02:07;19.10;99.90
20722;DHT22;10522;52.198;9.890;2023-07-24T01:04:33;19.10;99.90
20722;DHT22;10522;52.198;9.890;2023-07-24T01:06:59;19.10;99.90
20722;DHT22;10522;52.198;9.890;2023-07-24T01:09:25;19.10;99.90
20722;DHT22;10522;52.198;9.890;2023-07-24T01:11:57;19.10;99.90
20722;DHT22;10522;52.198;9.890;2023-07-24T01:14:40;19.20;99.90
20722;DHT22;10522;52.198;9.890;2023-07-24T01:17:10;19.10;99.90
20722;DHT22;10522;52.198;9.890;2023-07-24T01:19:43;19.10;99.90
20722;DHT22;10522;52.198;9.890;2023-07-24T01:27:24;19.10;99.90
20722;DHT22;10522;52.198;9.890;2023-07-24T01:29:50;19.10;99.90
20722;DHT22;10522;52.198;9.890;2023-07-24T01:32:15;19.10;99.90
20722;DHT22;10522;52.198;9.890;2023-07-24T01:34:42;19.10;99.90
20722;DHT22;10522;52.198;9.890;2023-07-24T01:37:08;19.00;99.90
20722;DHT22;10522;52.198;9.890;2023-07-24T01:39:35;19.00;99.90
20722;DHT22;10522;52.198;9.890;2023-07-24T01:42:02;19.00;99.90
20722;DHT22;10522;52.198;9.890;2023-07-24T01:44:27;19.00;99.90
20722;DHT22;10522;52.198;9.890;2023-07-24T01:46:53;19.00;99.90
20722;DHT22;10522;52.198;9.890;2023-07-24T01:49:18;19.00;99.90
20722;DHT22;10522;52.198;9.890;2023-07-24T01:51:44;19.00;99.90
20722;DHT22;10522;52.198;9.890;2023-07-24T01:54:09;19.00;99.90
20722;DHT22;10522;52.198;9.890;2023-07-24T01:56:36;19.00;99.90
20722;DHT22;10522;52.198;9.890;2023-07-24T01:59:03;19.00;99.90
20722;DHT22;10522;52.198;9.890;2023-07-24T02:01:28;19.00;99.90
20722;DHT22;10522;52.198;9.890;2023-07-24T02:03:54;19.10;99.90
20722;DHT22;10522;52.198;9.890;2023-07-24T02:06:19;19.10;99.90
20722;DHT22;10522;52.198;9.890;2023-07-24T02:08:45;19.10;99.90
20722;DHT22;10522;52.198;9.890;2023-07-24T02:11:15;19.10;99.90
20722;DHT22;10522;52.198;9.890;2023-07-24T02:13:44;19.00;99.90
20722;DHT22;10522;52.198;9.890;2023-07-24T02:16:10;19.00;99.90
20722;DHT22;10522;52.198;9.890;2023-07-24T02:18:37;19.00;99.90
20722;DHT22;10522;52.198;9.890;2023-07-24T02:21:03;19.00;99.90
20722;DHT22;10522;52.198;9.890;2023-07-24T02:23:29;19.00;99.90
20722;DHT22;10522;52.198;9.890;2023-07-24T02:25:54;19.00;99.90
20722;DHT22;10522;52.198;9.890;2023-07-24T02:28:20;19.00;99.90
20722;DHT22;10522;52.198;9.890;2023-07-24T02:30:49;19.00;99.90
20722;DHT22;10522;52.198;9.890;2023-07-24T02:33:17;19.00;99.90
20722;DHT22;10522;52.198;9.890;2023-07-24T02:35:43;19.00;99.90
20722;DHT22;10522;52.198;9.890;2023-07-24T02:38:08;19.00;99.90
20722;DHT22;10522;52.198;9.890;2023-07-24T02:40:35;19.00;99.90
20722;DHT22;10522;52.198;9.890;2023-07-24T02:43:01;19.00;99.90
20722;DHT22;10522;52.198;9.890;2023-07-24T02:45:26;19.00;99.90
20722;DHT22;10522;52.198;9.890;2023-07-24T02:47:52;18.90;99.90
20722;DHT22;10522;52.198;9.890;2023-07-24T02:50:18;18.80;99.90
20722;DHT22;10522;52.198;9.890;2023-07-24T02:52:43;18.70;99.90
20722;DHT22;10522;52.198;9.890;2023-07-24T02:55:09;18.60;99.90
20722;DHT22;10522;52.198;9.890;2023-07-24T02:57:34;18.60;99.90
20722;DHT22;10522;52.198;9.890;2023-07-24T03:00:00;18.50;99.90
20722;DHT22;10522;52.198;9.890;2023-07-24T03:02:26;18.50;99.90
20722;DHT22;10522;52.198;9.890;2023-07-24T03:04:51;18.50;99.90
20722;DHT22;10522;52.198;9.890;2023-07-24T03:07:17;18.50;99.90
20722;DHT22;10522;52.198;9.890;2023-07-24T03:09:42;18.40;99.90
20722;DHT22;10522;52.198;9.890;2023-07-24T03:12:08;18.40;99.90
20722;DHT22;10522;52.198;9.890;2023-07-24T03:14:34;18.30;99.90
20722;DHT22;10522;52.198;9.890;2023-07-24T03:16:59;18.20;99.90
20722;DHT22;10522;52.198;9.890;2023-07-24T03:19:25;18.20;99.90
20722;DHT22;10522;52.198;9.890;2023-07-24T03:21:51;18.10;99.90
20722;DHT22;10522;52.198;9.890;2023-07-24T03:24:16;18.10;99.90
20722;DHT22;10522;52.198;9.890;2023-07-24T03:26:42;18.00;99.90
20722;DHT22;10522;52.198;9.890;2023-07-24T03:29:08;18.00;99.90
20722;DHT22;10522;52.198;9.890;2023-07-24T03:31:33;17.90;99.90
20722;DHT22;10522;52.198;9.890;2023-07-24T03:33:59;17.80;99.90
20722;DHT22;10522;52.198;9.890;2023-07-24T03:36:25;17.80;99.90
20722;DHT22;10522;52.198;9.890;2023-07-24T03:38:50;17.90;99.90
20722;DHT22;10522;52.198;9.890;2023-07-24T03:41:16;17.90;99.90
20722;DHT22;10522;52.198;9.890;2023-07-24T03:43:41;17.80;99.90
20722;DHT22;10522;52.198;9.890;2023-07-24T03:46:07;17.80;99.90
20722;DHT22;10522;52.198;9.890;2023-07-24T03:48:33;17.80;99.90
20722;DHT22;10522;52.198;9.890;2023-07-24T03:51:01;17.80;99.90
20722;DHT22;10522;52.198;9.890;2023-07-24T03:53:27;17.80;99.90
20722;DHT22;10522;52.198;9.890;2023-07-24T03:55:52;17.80;99.90
20722;DHT22;10522;52.198;9.890;2023-07-24T03:58:18;17.90;99.90
20722;DHT22;10522;52.198;9.890;2023-07-24T04:00:44;17.90;99.90
20722;DHT22;10522;52.198;9.890;2023-07-24T04:03:09;17.90;99.90
20722;DHT22;10522;52.198;9.890;2023-07-24T04:05:35;17.90;99.90
20722;DHT22;10522;52.198;9.890;2023-07-24T04:08:01;17.90;99.90
20722;DHT22;10522;52.198;9.890;2023-07-24T04:10:27;17.90;99.90
20722;DHT22;10522;52.198;9.890;2023-07-24T04:12:53;17.90;99.90
20722;DHT22;10522;52.198;9.890;2023-07-24T04:15:18;17.90;99.90
20722;DHT22;10522;52.198;9.890;2023-07-24T04:17:44;17.90;99.90
20722;DHT22;10522;52.198;9.890;2023-07-24T04:20:10;17.90;99.90
20722;DHT22;10522;52.198;9.890;2023-07-24T04:22:35;17.90;99.90
20722;DHT22;10522;52.198;9.890;2023-07-24T04:25:01;18.00;99.90
20722;DHT22;10522;52.198;9.890;2023-07-24T04:27:26;18.00;99.90
20722;DHT22;10522;52.198;9.890;2023-07-24T04:29:52;18.00;99.90
20722;DHT22;10522;52.198;9.890;2023-07-24T04:32:18;18.00;99.90
20722;DHT22;10522;52.198;9.890;2023-07-24T04:34:43;18.00;99.90
20722;DHT22;10522;52.198;9.890;2023-07-24T04:37:09;18.00;99.90
20722;DHT22;10522;52.198;9.890;2023-07-24T04:39:34;18.00;99.90
20722;DHT22;10522;52.198;9.890;2023-07-24T04:42:00;18.00;99.90
20722;DHT22;10522;52.198;9.890;2023-07-24T04:44:26;17.90;99.90
20722;DHT22;10522;52.198;9.890;2023-07-24T04:46:51;17.90;99.90
20722;DHT22;10522;52.198;9.890;2023-07-24T04:49:17;17.90;99.90
20722;DHT22;10522;52.198;9.890;2023-07-24T04:51:42;18.00;99.90
20722;DHT22;10522;52.198;9.890;2023-07-24T04:54:08;18.00;99.90
20722;DHT22;10522;52.198;9.890;2023-07-24T04:56:34;18.10;99.90
20722;DHT22;10522;52.198;9.890;2023-07-24T04:59:00;18.20;99.90
20722;DHT22;10522;52.198;9.890;2023-07-24T05:01:25;18.30;99.90
20722;DHT22;10522;52.198;9.890;2023-07-24T05:03:51;18.30;99.90
20722;DHT22;10522;52.198;9.890;2023-07-24T05:06:16;18.40;99.90
20722;DHT22;10522;52.198;9.890;2023-07-24T05:08:42;18.60;99.90
20722;DHT22;10522;52.198;9.890;2023-07-24T05:11:07;18.70;99.90
20722;DHT22;10522;52.198;9.890;2023-07-24T05:13:33;18.80;99.90
20722;DHT22;10522;52.198;9.890;2023-07-24T05:15:59;18.90;99.90
20722;DHT22;10522;52.198;9.890;2023-07-24T05:18:24;19.10;99.90
20722;DHT22;10522;52.198;9.890;2023-07-24T05:20:50;19.20;99.90
20722;DHT22;10522;52.198;9.890;2023-07-24T05:23:17;19.20;99.90
20722;DHT22;10522;52.198;9.890;2023-07-24T05:25:42;19.20;99.90
20722;DHT22;10522;52.198;9.890;2023-07-24T05:28:08;19.30;99.90
20722;DHT22;10522;52.198;9.890;2023-07-24T05:30:34;19.40;99.90
20722;DHT22;10522;52.198;9.890;2023-07-24T05:33:00;19.60;99.90
20722;DHT22;10522;52.198;9.890;2023-07-24T05:35:26;19.80;99.90
20722;DHT22;10522;52.198;9.890;2023-07-24T05:37:51;19.80;99.90
20722;DHT22;10522;52.198;9.890;2023-07-24T05:40:17;19.80;99.90
20722;DHT22;10522;52.198;9.890;2023-07-24T05:42:42;19.70;99.90
20722;DHT22;10522;52.198;9.890;2023-07-24T05:45:09;19.60;99.90
20722;DHT22;10522;52.198;9.890;2023-07-24T05:47:36;19.50;99.90
20722;DHT22;10522;52.198;9.890;2023-07-24T05:50:02;19.50;99.90
20722;DHT22;10522;52.198;9.890;2023-07-24T05:52:28;19.50;99.90
20722;DHT22;10522;52.198;9.890;2023-07-24T05:54:54;19.40;99.90
20722;DHT22;10522;52.198;9.890;2023-07-24T05:57:20;19.30;99.90
20722;DHT22;10522;52.198;9.890;2023-07-24T05:59:45;19.30;99.90
20722;DHT22;10522;52.198;9.890;2023-07-24T06:02:11;19.30;99.90
20722;DHT22;10522;52.198;9.890;2023-07-24T06:04:36;19.40;99.90
20722;DHT22;10522;52.198;9.890;2023-07-24T06:07:02;19.40;99.90
20722;DHT22;10522;52.198;9.890;2023-07-24T06:09:28;19.50;99.90
20722;DHT22;10522;52.198;9.890;2023-07-24T06:11:53;19.70;99.90
20722;DHT22;10522;52.198;9.890;2023-07-24T06:14:19;19.70;99.90
20722;DHT22;10522;52.198;9.890;2023-07-24T06:16:45;20.00;99.90
20722;DHT22;10522;52.198;9.890;2023-07-24T06:19:10;20.20;99.90
20722;DHT22;10522;52.198;9.890;2023-07-24T06:21:36;20.30;99.90
20722;DHT22;10522;52.198;9.890;2023-07-24T06:24:02;20.40;99.90
20722;DHT22;10522;52.198;9.890;2023-07-24T06:26:28;20.40;99.90
20722;DHT22;10522;52.198;9.890;2023-07-24T06:28:54;20.60;99.90
20722;DHT22;10522;52.198;9.890;2023-07-24T06:31:20;20.80;99.90
20722;DHT22;10522;52.198;9.890;2023-07-24T06:33:46;21.10;99.90
20722;DHT22;10522;52.198;9.890;2023-07-24T06:36:11;21.20;99.90
20722;DHT22;10522;52.198;9.890;2023-07-24T06:38:37;21.30;99.90
20722;DHT22;10522;52.198;9.890;2023-07-24T06:41:03;21.20;99.90
20722;DHT22;10522;52.198;9.890;2023-07-24T06:43:29;21.20;99.90
20722;DHT22;10522;52.198;9.890;2023-07-24T06:45:54;21.00;99.90
20722;DHT22;10522;52.198;9.890;2023-07-24T06:48:20;20.90;99.90
20722;DHT22;10522;52.198;9.890;2023-07-24T06:50:46;20.90;99.90
20722;DHT22;10522;52.198;9.890;2023-07-24T06:53:11;20.90;99.90
20722;DHT22;10522;52.198;9.890;2023-07-24T06:55:37;20.90;99.90
20722;DHT22;10522;52.198;9.890;2023-07-24T06:58:02;20.90;99.90
20722;DHT22;10522;52.198;9.890;2023-07-24T07:00:28;21.10;99.90
20722;DHT22;10522;52.198;9.890;2023-07-24T07:02:53;21.20;99.90
20722;DHT22;10522;52.198;9.890;2023-07-24T07:05:19;21.50;99.90
20722;DHT22;10522;52.198;9.890;2023-07-24T07:07:45;21.90;99.90
20722;DHT22;10522;52.198;9.890;2023-07-24T07:10:10;22.00;99.90
20722;DHT22;10522;52.198;9.890;2023-07-24T07:12:36;21.90;99.90
20722;DHT22;10522;52.198;9.890;2023-07-24T07:15:01;21.80;99.90
20722;DHT22;10522;52.198;9.890;2023-07-24T07:17:27;21.70;99.90
20722;DHT22;10522;52.198;9.890;2023-07-24T07:19:53;21.70;99.90
20722;DHT22;10522;52.198;9.890;2023-07-24T07:22:21;21.60;99.90
20722;DHT22;10522;52.198;9.890;2023-07-24T07:24:47;21.70;99.90
20722;DHT22;10522;52.198;9.890;2023-07-24T07:27:12;21.70;99.90
20722;DHT22;10522;52.198;9.890;2023-07-24T07:29:38;21.70;99.90
20722;DHT22;10522;52.198;9.890;2023-07-24T07:32:04;21.80;99.90
20722;DHT22;10522;52.198;9.890;2023-07-24T07:34:30;22.10;99.90
20722;DHT22;10522;52.198;9.890;2023-07-24T07:36:55;22.90;99.90
20722;DHT22;10522;52.198;9.890;2023-07-24T07:39:21;23.50;99.90
20722;DHT22;10522;52.198;9.890;2023-07-24T07:41:47;23.60;99.90
20722;DHT22;10522;52.198;9.890;2023-07-24T07:44:12;23.50;99.90
20722;DHT22;10522;52.198;9.890;2023-07-24T07:46:38;23.20;99.90
20722;DHT22;10522;52.198;9.890;2023-07-24T07:49:03;23.10;99.90
20722;DHT22;10522;52.198;9.890;2023-07-24T07:51:29;22.80;99.90
20722;DHT22;10522;52.198;9.890;2023-07-24T07:53:54;22.90;99.90
20722;DHT22;10522;52.198;9.890;2023-07-24T07:56:20;22.90;99.90
20722;DHT22;10522;52.198;9.890;2023-07-24T07:58:46;23.10;99.90
20722;DHT22;10522;52.198;9.890;2023-07-24T08:01:11;23.50;99.90
20722;DHT22;10522;52.198;9.890;2023-07-24T08:03:37;23.70;99.90
20722;DHT22;10522;52.198;9.890;2023-07-24T08:06:02;23.90;99.90
20722;DHT22;10522;52.198;9.890;2023-07-24T08:08:28;23.50;99.90
20722;DHT22;10522;52.198;9.890;2023-07-24T08:10:54;22.80;99.90
20722;DHT22;10522;52.198;9.890;2023-07-24T08:13:19;22.10;99.90
20722;DHT22;10522;52.198;9.890;2023-07-24T08:15:45;21.70;99.90
20722;DHT22;10522;52.198;9.890;2023-07-24T08:18:10;21.50;99.90
20722;DHT22;10522;52.198;9.890;2023-07-24T08:20:37;21.40;99.90
20722;DHT22;10522;52.198;9.890;2023-07-24T08:23:03;21.40;99.90
20722;DHT22;10522;52.198;9.890;2023-07-24T08:25:28;21.50;99.90
20722;DHT22;10522;52.198;9.890;2023-07-24T08:27:54;21.60;99.90
20722;DHT22;10522;52.198;9.890;2023-07-24T08:30:20;21.80;99.90
20722;DHT22;10522;52.198;9.890;2023-07-24T08:32:45;21.90;99.90
20722;DHT22;10522;52.198;9.890;2023-07-24T08:35:11;21.40;99.90
20722;DHT22;10522;52.198;9.890;2023-07-24T08:37:36;21.20;99.90
20722;DHT22;10522;52.198;9.890;2023-07-24T08:40:02;21.30;99.90
20722;DHT22;10522;52.198;9.890;2023-07-24T08:42:28;21.30;99.90
20722;DHT22;10522;52.198;9.890;2023-07-24T08:44:55;21.40;99.90
20722;DHT22;10522;52.198;9.890;2023-07-24T08:47:21;21.40;99.90
20722;DHT22;10522;52.198;9.890;2023-07-24T08:49:49;21.80;99.90
20722;DHT22;10522;52.198;9.890;2023-07-24T08:52:16;22.10;99.90
20722;DHT22;10522;52.198;9.890;2023-07-24T08:54:42;22.20;99.90
20722;DHT22;10522;52.198;9.890;2023-07-24T08:57:08;22.20;99.90
20722;DHT22;10522;52.198;9.890;2023-07-24T08:59:34;22.00;99.90
20722;DHT22;10522;52.198;9.890;2023-07-24T09:02:00;22.30;99.90
20722;DHT22;10522;52.198;9.890;2023-07-24T09:04:26;22.30;99.90
20722;DHT22;10522;52.198;9.890;2023-07-24T09:06:53;22.30;99.90
20722;DHT22;10522;52.198;9.890;2023-07-24T09:09:18;22.30;99.90
20722;DHT22;10522;52.198;9.890;2023-07-24T09:11:52;22.20;99.90
20722;DHT22;10522;52.198;9.890;2023-07-24T09:14:29;21.90;99.90
20722;DHT22;10522;52.198;9.890;2023-07-24T09:17:04;21.90;99.90
20722;DHT22;10522;52.198;9.890;2023-07-24T09:19:30;21.80;99.90
20722;DHT22;10522;52.198;9.890;2023-07-24T09:21:56;21.70;99.90
20722;DHT22;10522;52.198;9.890;2023-07-24T09:24:21;21.70;99.90
20722;DHT22;10522;52.198;9.890;2023-07-24T09:26:52;21.80;99.90
20722;DHT22;10522;52.198;9.890;2023-07-24T09:29:18;22.00;99.90
20722;DHT22;10522;52.198;9.890;2023-07-24T09:31:45;22.10;99.90
20722;DHT22;10522;52.198;9.890;2023-07-24T09:34:18;22.20;99.90
20722;DHT22;10522;52.198;9.890;2023-07-24T09:36:44;22.40;99.90
20722;DHT22;10522;52.198;9.890;2023-07-24T09:39:10;22.50;99.90
20722;DHT22;10522;52.198;9.890;2023-07-24T09:41:38;22.60;99.90
20722;DHT22;10522;52.198;9.890;2023-07-24T09:44:04;23.00;99.90
20722;DHT22;10522;52.198;9.890;2023-07-24T09:46:30;23.50;99.90
20722;DHT22;10522;52.198;9.890;2023-07-24T09:48:57;23.90;99.90
20722;DHT22;10522;52.198;9.890;2023-07-24T09:51:23;24.30;99.90
20722;DHT22;10522;52.198;9.890;2023-07-24T09:54:00;24.30;99.90
20722;DHT22;10522;52.198;9.890;2023-07-24T09:56:27;24.50;99.90
20722;DHT22;10522;52.198;9.890;2023-07-24T09:58:54;24.50;99.90
20722;DHT22;10522;52.198;9.890;2023-07-24T10:01:21;24.00;99.90
20722;DHT22;10522;52.198;9.890;2023-07-24T10:03:49;23.70;99.90
20722;DHT22;10522;52.198;9.890;2023-07-24T10:06:16;23.60;99.90
20722;DHT22;10522;52.198;9.890;2023-07-24T10:08:42;23.40;99.90
20722;DHT22;10522;52.198;9.890;2023-07-24T10:11:09;23.70;99.90
20722;DHT22;10522;52.198;9.890;2023-07-24T10:13:36;23.70;99.90
20722;DHT22;10522;52.198;9.890;2023-07-24T10:16:03;23.70;99.90
20722;DHT22;10522;52.198;9.890;2023-07-24T10:18:32;23.80;99.90
20722;DHT22;10522;52.198;9.890;2023-07-24T10:21:03;23.50;99.90
20722;DHT22;10522;52.198;9.890;2023-07-24T10:23:29;23.50;99.90
20722;DHT22;10522;52.198;9.890;2023-07-24T10:25:55;23.40;99.90
20722;DHT22;10522;52.198;9.890;2023-07-24T10:28:33;24.10;99.90
20722;DHT22;10522;52.198;9.890;2023-07-24T10:31:01;24.60;99.90
20722;DHT22;10522;52.198;9.890;2023-07-24T10:33:30;25.00;99.90
20722;DHT22;10522;52.198;9.890;2023-07-24T10:36:04;25.10;99.90
20722;DHT22;10522;52.198;9.890;2023-07-24T10:38:39;25.40;99.90
20722;DHT22;10522;52.198;9.890;2023-07-24T10:41:07;25.20;99.90
20722;DHT22;10522;52.198;9.890;2023-07-24T10:43:44;24.90;99.90
20722;DHT22;10522;52.198;9.890;2023-07-24T10:46:10;24.30;99.90
20722;DHT22;10522;52.198;9.890;2023-07-24T10:48:36;23.90;99.90
20722;DHT22;10522;52.198;9.890;2023-07-24T10:51:06;23.90;99.90
20722;DHT22;10522;52.198;9.890;2023-07-24T10:53:35;24.10;99.90
20722;DHT22;10522;52.198;9.890;2023-07-24T10:56:00;24.90;99.90
20722;DHT22;10522;52.198;9.890;2023-07-24T10:58:27;25.30;99.90
20722;DHT22;10522;52.198;9.890;2023-07-24T11:00:52;25.90;99.90
20722;DHT22;10522;52.198;9.890;2023-07-24T11:03:19;26.40;99.90
20722;DHT22;10522;52.198;9.890;2023-07-24T11:05:46;26.40;99.90
20722;DHT22;10522;52.198;9.890;2023-07-24T11:08:13;26.60;99.90
20722;DHT22;10522;52.198;9.890;2023-07-24T11:10:48;26.40;99.90
20722;DHT22;10522;52.198;9.890;2023-07-24T11:13:15;27.00;99.90
20722;DHT22;10522;52.198;9.890;2023-07-24T11:15:41;26.80;99.90
20722;DHT22;10522;52.198;9.890;2023-07-24T11:18:06;26.80;99.90
20722;DHT22;10522;52.198;9.890;2023-07-24T11:20:48;26.60;99.90
20722;DHT22;10522;52.198;9.890;2023-07-24T11:23:14;26.40;99.90
20722;DHT22;10522;52.198;9.890;2023-07-24T11:25:40;26.10;99.90
20722;DHT22;10522;52.198;9.890;2023-07-24T11:28:09;25.70;99.90
20722;DHT22;10522;52.198;9.890;2023-07-24T11:30:35;26.00;99.90
20722;DHT22;10522;52.198;9.890;2023-07-24T11:33:03;26.60;99.90
20722;DHT22;10522;52.198;9.890;2023-07-24T11:35:29;26.80;99.90
20722;DHT22;10522;52.198;9.890;2023-07-24T11:37:55;26.60;99.90
20722;DHT22;10522;52.198;9.890;2023-07-24T11:40:21;26.50;99.90
20722;DHT22;10522;52.198;9.890;2023-07-24T11:42:48;26.70;99.90
20722;DHT22;10522;52.198;9.890;2023-07-24T11:45:14;26.20;99.90
20722;DHT22;10522;52.198;9.890;2023-07-24T11:47:45;25.90;99.90
20722;DHT22;10522;52.198;9.890;2023-07-24T11:50:10;25.40;99.90
20722;DHT22;10522;52.198;9.890;2023-07-24T11:52:54;24.90;99.90
20722;DHT22;10522;52.198;9.890;2023-07-24T11:55:30;25.00;99.90
20722;DHT22;10522;52.198;9.890;2023-07-24T11:58:00;25.40;99.90
20722;DHT22;10522;52.198;9.890;2023-07-24T12:00:27;25.60;99.90
20722;DHT22;10522;52.198;9.890;2023-07-24T12:02:58;25.70;99.90
20722;DHT22;10522;52.198;9.890;2023-07-24T12:05:24;25.50;99.90
20722;DHT22;10522;52.198;9.890;2023-07-24T12:07:53;25.00;99.90
20722;DHT22;10522;52.198;9.890;2023-07-24T12:10:27;25.50;99.90
20722;DHT22;10522;52.198;9.890;2023-07-24T12:12:53;26.30;99.90
20722;DHT22;10522;52.198;9.890;2023-07-24T12:15:19;25.80;99.90
20722;DHT22;10522;52.198;9.890;2023-07-24T12:17:45;25.30;99.90
20722;DHT22;10522;52.198;9.890;2023-07-24T12:20:10;25.10;99.90
20722;DHT22;10522;52.198;9.890;2023-07-24T12:22:38;24.90;99.90
20722;DHT22;10522;52.198;9.890;2023-07-24T12:25:04;24.70;99.90
20722;DHT22;10522;52.198;9.890;2023-07-24T12:27:30;24.60;99.90
20722;DHT22;10522;52.198;9.890;2023-07-24T12:29:56;24.60;99.90
20722;DHT22;10522;52.198;9.890;2023-07-24T12:32:22;24.70;99.90
20722;DHT22;10522;52.198;9.890;2023-07-24T12:34:49;24.80;99.90
20722;DHT22;10522;52.198;9.890;2023-07-24T12:37:16;24.90;99.90
20722;DHT22;10522;52.198;9.890;2023-07-24T12:39:42;25.10;99.90
20722;DHT22;10522;52.198;9.890;2023-07-24T12:42:08;25.50;99.90
20722;DHT22;10522;52.198;9.890;2023-07-24T12:44:33;25.20;99.90
20722;DHT22;10522;52.198;9.890;2023-07-24T12:46:59;24.80;99.90
20722;DHT22;10522;52.198;9.890;2023-07-24T12:49:25;24.20;99.90
20722;DHT22;10522;52.198;9.890;2023-07-24T12:51:50;23.70;99.90
20722;DHT22;10522;52.198;9.890;2023-07-24T12:54:16;23.70;99.90
20722;DHT22;10522;52.198;9.890;2023-07-24T12:56:43;23.70;99.90
20722;DHT22;10522;52.198;9.890;2023-07-24T12:59:08;23.70;99.90
20722;DHT22;10522;52.198;9.890;2023-07-24T13:01:34;23.60;99.90
20722;DHT22;10522;52.198;9.890;2023-07-24T13:04:00;23.40;99.90
20722;DHT22;10522;52.198;9.890;2023-07-24T13:06:25;23.50;99.90
20722;DHT22;10522;52.198;9.890;2023-07-24T13:08:51;23.40;99.90
20722;DHT22;10522;52.198;9.890;2023-07-24T13:11:17;23.50;99.90
20722;DHT22;10522;52.198;9.890;2023-07-24T13:13:43;23.40;99.90
20722;DHT22;10522;52.198;9.890;2023-07-24T13:16:08;23.20;99.90
20722;DHT22;10522;52.198;9.890;2023-07-24T13:18:34;23.90;99.90
20722;DHT22;10522;52.198;9.890;2023-07-24T13:21:00;24.20;99.90
20722;DHT22;10522;52.198;9.890;2023-07-24T13:23:25;24.90;99.90
20722;DHT22;10522;52.198;9.890;2023-07-24T13:25:52;25.70;99.90
20722;DHT22;10522;52.198;9.890;2023-07-24T13:28:18;26.10;99.90
20722;DHT22;10522;52.198;9.890;2023-07-24T13:30:44;25.40;99.90
20722;DHT22;10522;52.198;9.890;2023-07-24T13:33:11;25.20;99.90
20722;DHT22;10522;52.198;9.890;2023-07-24T13:35:37;25.10;99.90
20722;DHT22;10522;52.198;9.890;2023-07-24T13:38:03;24.80;99.90
20722;DHT22;10522;52.198;9.890;2023-07-24T13:40:28;24.60;99.90
20722;DHT22;10522;52.198;9.890;2023-07-24T13:42:54;24.40;99.90
20722;DHT22;10522;52.198;9.890;2023-07-24T13:45:19;24.40;99.90
20722;DHT22;10522;52.198;9.890;2023-07-24T13:47:45;24.80;99.90
20722;DHT22;10522;52.198;9.890;2023-07-24T13:50:11;25.20;99.90
20722;DHT22;10522;52.198;9.890;2023-07-24T13:52:36;25.50;99.90
20722;DHT22;10522;52.198;9.890;2023-07-24T13:55:02;25.10;99.90
20722;DHT22;10522;52.198;9.890;2023-07-24T13:57:28;24.70;99.90
20722;DHT22;10522;52.198;9.890;2023-07-24T13:59:53;24.40;99.90
20722;DHT22;10522;52.198;9.890;2023-07-24T14:02:19;24.20;99.90
20722;DHT22;10522;52.198;9.890;2023-07-24T14:04:45;24.10;99.90
20722;DHT22;10522;52.198;9.890;2023-07-24T14:07:10;23.80;99.90
20722;DHT22;10522;52.198;9.890;2023-07-24T14:09:38;23.40;99.90
20722;DHT22;10522;52.198;9.890;2023-07-24T14:12:04;23.10;99.90
20722;DHT22;10522;52.198;9.890;2023-07-24T14:14:33;22.90;99.90
20722;DHT22;10522;52.198;9.890;2023-07-24T14:16:59;22.70;99.90
20722;DHT22;10522;52.198;9.890;2023-07-24T14:19:24;22.50;99.90
20722;DHT22;10522;52.198;9.890;2023-07-24T14:21:51;22.20;99.90
20722;DHT22;10522;52.198;9.890;2023-07-24T14:24:18;20.70;99.90
20722;DHT22;10522;52.198;9.890;2023-07-24T14:26:44;18.80;99.90
20722;DHT22;10522;52.198;9.890;2023-07-24T14:29:14;18.10;99.90
20722;DHT22;10522;52.198;9.890;2023-07-24T14:31:43;18.00;99.90
20722;DHT22;10522;52.198;9.890;2023-07-24T14:34:11;17.90;99.90
20722;DHT22;10522;52.198;9.890;2023-07-24T14:36:38;17.90;99.90
20722;DHT22;10522;52.198;9.890;2023-07-24T14:39:05;17.90;99.90
20722;DHT22;10522;52.198;9.890;2023-07-24T14:41:30;17.80;99.90
20722;DHT22;10522;52.198;9.890;2023-07-24T14:43:56;17.90;99.90
20722;DHT22;10522;52.198;9.890;2023-07-24T14:46:22;17.90;99.90
20722;DHT22;10522;52.198;9.890;2023-07-24T14:48:49;17.80;99.90
20722;DHT22;10522;52.198;9.890;2023-07-24T14:51:14;17.80;99.90
20722;DHT22;10522;52.198;9.890;2023-07-24T14:53:42;17.80;99.90
20722;DHT22;10522;52.198;9.890;2023-07-24T14:56:08;17.80;99.90
20722;DHT22;10522;52.198;9.890;2023-07-24T14:58:34;17.80;99.90
20722;DHT22;10522;52.198;9.890;2023-07-24T15:01:00;17.80;99.90
20722;DHT22;10522;52.198;9.890;2023-07-24T15:03:25;17.70;99.90
20722;DHT22;10522;52.198;9.890;2023-07-24T15:05:51;17.60;99.90
20722;DHT22;10522;52.198;9.890;2023-07-24T15:08:17;17.70;99.90
20722;DHT22;10522;52.198;9.890;2023-07-24T15:10:43;17.70;99.90
20722;DHT22;10522;52.198;9.890;2023-07-24T15:13:13;17.70;99.90
20722;DHT22;10522;52.198;9.890;2023-07-24T15:15:38;17.70;99.90
20722;DHT22;10522;52.198;9.890;2023-07-24T15:18:04;17.70;99.90
20722;DHT22;10522;52.198;9.890;2023-07-24T15:20:30;17.60;99.90
20722;DHT22;10522;52.198;9.890;2023-07-24T15:22:55;17.70;99.90
20722;DHT22;10522;52.198;9.890;2023-07-24T15:25:21;17.50;99.90
20722;DHT22;10522;52.198;9.890;2023-07-24T15:27:47;17.60;99.90
20722;DHT22;10522;52.198;9.890;2023-07-24T15:30:15;17.70;99.90